Map

Track Data

SID SEASON NUMBER BASIN SUBBASIN NAME ISO_TIME NATURE LAT LON WMO_WIND WMO_PRES WMO_AGENCY TRACK_TYPE DIST2LAND LANDFALL IFLAG USA_AGENCY USA_ATCF_ID USA_LAT USA_LON USA_RECORD USA_STATUS USA_WIND USA_PRES USA_SSHS USA_R34_NE USA_R34_SE USA_R34_SW USA_R34_NW USA_R50_NE USA_R50_SE USA_R50_SW USA_R50_NW USA_R64_NE USA_R64_SE USA_R64_SW USA_R64_NW USA_POCI USA_ROCI USA_RMW USA_EYE TOKYO_LAT TOKYO_LON TOKYO_GRADE TOKYO_WIND TOKYO_PRES TOKYO_R50_DIR TOKYO_R50_LONG TOKYO_R50_SHORT TOKYO_R30_DIR TOKYO_R30_LONG TOKYO_R30_SHORT TOKYO_LAND CMA_LAT CMA_LON CMA_CAT CMA_WIND CMA_PRES HKO_LAT HKO_LON HKO_CAT HKO_WIND HKO_PRES NEWDELHI_LAT NEWDELHI_LON NEWDELHI_GRADE NEWDELHI_WIND NEWDELHI_PRES NEWDELHI_CI NEWDELHI_DP NEWDELHI_POCI REUNION_LAT REUNION_LON REUNION_TYPE REUNION_WIND REUNION_PRES REUNION_TNUM REUNION_CI REUNION_RMW REUNION_R34_NE REUNION_R34_SE REUNION_R34_SW REUNION_R34_NW REUNION_R50_NE REUNION_R50_SE REUNION_R50_SW REUNION_R50_NW REUNION_R64_NE REUNION_R64_SE REUNION_R64_SW REUNION_R64_NW BOM_LAT BOM_LON BOM_TYPE BOM_WIND BOM_PRES BOM_TNUM BOM_CI BOM_RMW BOM_R34_NE BOM_R34_SE BOM_R34_SW BOM_R34_NW BOM_R50_NE BOM_R50_SE BOM_R50_SW BOM_R50_NW BOM_R64_NE BOM_R64_SE BOM_R64_SW BOM_R64_NW BOM_ROCI BOM_POCI BOM_EYE BOM_POS_METHOD BOM_PRES_METHOD NADI_LAT NADI_LON NADI_CAT NADI_WIND NADI_PRES WELLINGTON_LAT WELLINGTON_LON WELLINGTON_WIND WELLINGTON_PRES DS824_LAT DS824_LON DS824_STAGE DS824_WIND DS824_PRES TD9636_LAT TD9636_LON TD9636_STAGE TD9636_WIND TD9636_PRES TD9635_LAT TD9635_LON TD9635_WIND TD9635_PRES TD9635_ROCI NEUMANN_LAT NEUMANN_LON NEUMANN_CLASS NEUMANN_WIND NEUMANN_PRES MLC_LAT MLC_LON MLC_CLASS MLC_WIND MLC_PRES USA_GUST BOM_GUST BOM_GUST_PER REUNION_GUST REUNION_GUST_PER USA_SEAHGT USA_SEARAD_NE USA_SEARAD_SE USA_SEARAD_SW USA_SEARAD_NW STORM_SPEED STORM_DIR
2009289N12230 2009 83 EP MM NEKI 2009-10-15 12:00:00 NR 12.3000 -130.300 main 2344 2344 O_____________ jtwc_cp CP032009 12.3000 -130.300 DB 20 1009 -3 15 273
2009289N12230 2009 83 EP MM NEKI 2009-10-15 15:00:00 NR 12.3432 -131.052 main 2401 2401 P_____________ CP032009 12.3432 -131.052 DB 20 1009 -3 14 270
2009289N12230 2009 83 EP MM NEKI 2009-10-15 18:00:00 NR 12.3000 -131.700 main 2445 2445 O_____________ jtwc_cp CP032009 12.3000 -131.700 DB 20 1009 -3 11 259
2009289N12230 2009 83 EP MM NEKI 2009-10-15 21:00:00 NR 12.1220 -132.193 main 2499 2499 P_____________ CP032009 12.1220 -132.193 DB 20 1009 -3 11 248
2009289N12230 2009 83 EP MM NEKI 2009-10-16 00:00:00 NR 11.9000 -132.700 main 2511 2455 O_____________ jtwc_cp CP032009 11.9000 -132.700 DB 20 1009 -3 12 252
2009289N12230 2009 83 EP MM NEKI 2009-10-16 03:00:00 NR 11.7424 -133.390 main 2450 2375 P_____________ CP032009 11.7424 -133.390 DB 20 1009 -3 15 258
2009289N12230 2009 83 EP MM NEKI 2009-10-16 06:00:00 NR 11.6000 -134.200 main 2375 2300 O_____________ jtwc_cp CP032009 11.6000 -134.200 DB 20 1009 -3 17 260
2009289N12230 2009 83 EP MM NEKI 2009-10-16 09:00:00 NR 11.4351 -135.093 main 2295 2212 P_____________ CP032009 11.4351 -135.093 DB 20 1009 -3 18 260
2009289N12230 2009 83 EP MM NEKI 2009-10-16 12:00:00 NR 11.3000 -136.000 main 2212 2150 O_____________ jtwc_cp CP032009 11.3000 -136.000 DB 20 1009 -3 1011 120 60 17 263
2009289N12230 2009 83 EP MM NEKI 2009-10-16 15:00:00 NR 11.2193 -136.770 main 2140 2073 P_____________ CP032009 11.2193 -136.770 DB 22 1009 -3 1011 120 60 16 266
2009289N12230 2009 83 EP MM NEKI 2009-10-16 18:00:00 NR 11.2000 -137.600 main 2063 1968 O_____________ jtwc_cp CP032009 11.2000 -137.600 DB 25 1009 -3 1011 120 60 19 271
2009289N12230 2009 83 EP MM NEKI 2009-10-16 21:00:00 NR 11.2430 -138.700 main 1959 1850 P_____________ CP032009 11.2430 -138.700 DB 25 1009 -3 1011 120 60 22 273
2009289N12230 2009 83 EP MM NEKI 2009-10-17 00:00:00 NR 11.3000 -139.800 main 1850 1816 O_____________ jtwc_cp CP032009 11.3000 -139.800 DB 25 1009 -3 1011 120 60 14 278
2009289N12230 2009 83 EP CP NEKI 2009-10-17 03:00:00 NR 11.4394 -140.149 main 1816 1712 P_____________ CP032009 11.4394 -140.149 DB 25 1008 -3 1011 120 60 16 270
2009289N12230 2009 83 EP CP NEKI 2009-10-17 06:00:00 NR 11.3000 -141.400 main 1703 1441 O_____________ jtwc_cp CP032009 11.3000 -141.400 DB 25 1008 -3 1011 120 60 54 259
2009289N12230 2009 83 EP CP NEKI 2009-10-17 09:00:00 NR 10.3811 -145.587 main 1418 1255 P_____________ CP032009 10.3811 -145.587 DB 25 1008 -3 1011 120 60 83 257
2009289N12230 2009 83 EP CP NEKI 2009-10-17 12:00:00 NR 9.40000 -149.600 main 1250 1222 O_____________ jtwc_cp CP032009 9.40000 -149.600 DB 25 1008 -3 1011 120 60 50 256
2009289N12230 2009 83 EP CP NEKI 2009-10-17 15:00:00 NR 9.20724 -150.456 main 1222 1222 P_____________ CP032009 9.20724 -150.456 DB 25 1008 -3 1011 120 60 6 260
2009289N12230 2009 83 EP CP NEKI 2009-10-17 18:00:00 NR 9.30000 -150.200 main 1227 1212 O_____________ jtwc_cp CP032009 9.30000 -150.200 DB 25 1008 -3 1011 120 60 1 309
2009289N12230 2009 83 EP CP NEKI 2009-10-17 21:00:00 NR 9.25738 -150.512 main 1212 1202 P_____________ CP032009 9.25738 -150.512 DB 25 1008 -3 1011 120 60 7 262
2009289N12230 2009 83 EP CP NEKI 2009-10-18 00:00:00 NR 9.20000 -150.900 main 1202 1189 O_____________ jtwc_cp CP032009 9.20000 -150.900 DB 25 1008 -3 1011 120 60 9 261
2009289N12230 2009 83 EP CP NEKI 2009-10-18 03:00:00 NR 9.11503 -151.420 main 1191 1174 P_____________ CP032009 9.11503 -151.420 DB 25 1008 -3 1010 140 60 11 260
2009289N12230 2009 83 EP CP NEKI 2009-10-18 06:00:00 NR 9.00000 -152.000 main 1177 1171 O_____________ jtwc_cp CP032009 9.00000 -152.000 DB 25 1008 -3 1010 160 60 11 256
2009289N12230 2009 83 EP CP NEKI 2009-10-18 09:00:00 NR 8.84219 -152.505 main 1182 1173 P_____________ CP032009 8.85633 -152.400 DB 25 1008 -3 1010 160 62 11 255
2009289N12230 2009 83 EP CP NEKI 2009-10-18 12:00:00 NR 8.70000 -153.100 main 1175 1166 O_____________ jtwc_cp CP032009 8.70000 -153.100 DB 25 1008 -3 1010 160 65 14 261
2009289N12230 2009 83 EP CP NEKI 2009-10-18 15:00:00 NR 8.62757 -153.905 main 1169 1155 P_____________ CP032009 8.52253 -154.710 DB 25 1008 -3 1009 170 65 22 266
2009289N12230 2009 83 EP CP NEKI 2009-10-18 18:00:00 TS 8.53333 -155.267 25 1008 hurdat_epa main 1165 1164 O_____________ hurdat_epa CP032009 8.40000 -156.200 TD 25 1008 -1 1009 180 65 35 21 267
2009289N12230 2009 83 EP CP NEKI 2009-10-18 21:00:00 TS 8.50387 -156.026 main 1164 1164 P_____________ CP032009 8.39641 -156.522 TD 27 1007 -1 1008 180 70 12 270
2009289N12230 2009 83 EP CP NEKI 2009-10-19 00:00:00 TS 8.54000 -156.500 30 1007 hurdat_epa main 1167 1157 O_____________ hurdat_epa CP032009 8.50000 -156.500 TD 30 1007 -1 1008 180 75 40 8 280
2009289N12230 2009 83 EP CP NEKI 2009-10-19 03:00:00 TS 8.64572 -156.809 main 1159 1139 P_____________ CP032009 8.67007 -156.870 TD 30 1007 -1 1009 202 75 7 295
2009289N12230 2009 83 EP CP NEKI 2009-10-19 06:00:00 TS 8.83333 -157.133 30 1007 hurdat_epa main 1140 1114 O_____________ hurdat_epa CP032009 8.90000 -157.300 TD 30 1007 -1 1010 225 75 40 8 301
2009289N12230 2009 83 EP CP NEKI 2009-10-19 09:00:00 TS 9.07163 -157.532 main 1114 1089 P_____________ CP032009 9.11234 -157.628 TD 32 1006 -1 1009 212 60 10 304
2009289N12230 2009 83 EP CP NEKI 2009-10-19 12:00:00 TS 9.40000 -158.000 35 1006 hurdat_epa main 1092 1059 O_____________ hurdat_epa CP032009 9.40000 -158.000 TS 35 1006 0 50 50 45 1009 200 45 45 12 308
2009289N12230 2009 83 EP CP NEKI 2009-10-19 15:00:00 TS 9.83241 -158.518 main 1062 1029 P_____________ CP032009 9.82746 -158.505 TS 35 1006 0 50 50 45 1009 200 45 14 310
2009289N12230 2009 83 EP CP NEKI 2009-10-19 18:00:00 TS 10.3000 -159.100 35 1006 hurdat_epa main 1029 1013 O_____________ hurdat_epa CP032009 10.3000 -159.100 TS 35 1006 0 50 50 45 1009 200 45 45 15 306
2009289N12230 2009 83 EP CP NEKI 2009-10-19 21:00:00 TS 10.7075 -159.735 main 1013 1003 P_____________ CP032009 10.7075 -159.735 TS 35 1006 0 55 47 52 1009 210 47 15 302
2009289N12230 2009 83 EP CP NEKI 2009-10-20 00:00:00 TS 11.1000 -160.400 35 1006 hurdat_epa main 1008 1002 O_____________ hurdat_epa CP032009 11.1000 -160.400 TS 35 1006 0 60 45 60 1010 220 50 45 12 50 50 45 15 301
2009289N12230 2009 83 EP CP NEKI 2009-10-20 03:00:00 TS 11.4925 -161.065 main 1010 1006 P_____________ CP032009 11.4925 -161.065 TS 37 1005 0 60 45 65 1009 160 50 12 55 47 52 15 302
2009289N12230 2009 83 EP CP NEKI 2009-10-20 06:00:00 TS 11.9000 -161.700 40 1005 hurdat_epa main 1013 1010 O_____________ hurdat_epa CP032009 11.9000 -161.700 TS 40 1005 0 60 45 70 1008 100 50 55 12 60 45 60 15 305
2009289N12230 2009 83 EP CP NEKI 2009-10-20 09:00:00 TS 12.3274 -162.280 main 1022 1013 P_____________ CP032009 12.3274 -162.280 TS 47 1003 0 67 45 70 1008 100 42 12 67 45 65 14 310
2009289N12230 2009 83 EP CP NEKI 2009-10-20 12:00:00 TS 12.8000 -162.800 55 1001 hurdat_epa main 1020 1012 O_____________ hurdat_epa CP032009 12.8000 -162.800 TS 55 1001 0 75 45 35 70 35 20 15 35 1008 100 35 65 12 75 45 35 70 14 317
2009289N12230 2009 83 EP CP NEKI 2009-10-20 15:00:00 TS 13.3348 -163.250 main 1022 995 P_____________ CP032009 13.3348 -163.250 TS 57 998 0 77 47 37 72 42 27 17 37 1007 100 37 14 321
2009289N12230 2009 83 EP CP NEKI 2009-10-20 18:00:00 TS 13.9000 -163.700 60 996 hurdat_epa main 995 968 O_____________ hurdat_epa CP032009 13.9000 -163.700 TS 60 996 0 80 50 40 75 50 35 20 40 1006 100 40 75 15 319
2009289N12230 2009 83 EP CP NEKI 2009-10-20 21:00:00 TS 14.4651 -164.250 main 958 943 P_____________ CP032009 14.4651 -164.250 TS 62 994 0 82 52 42 77 52 37 22 42 1003 87 32 15 316
2009289N12230 2009 83 EP CP NEKI 2009-10-21 00:00:00 TS 15.0000 -164.800 65 992 hurdat_epa main 943 929 O_____________ hurdat_epa CP032009 15.0000 -164.800 HU 65 992 1 85 55 45 80 55 40 25 45 25 20 1000 75 25 80 14 316
2009289N12230 2009 83 EP CP NEKI 2009-10-21 03:00:00 TS 15.4799 -165.280 main 929 918 P_____________ CP032009 15.4799 -165.280 HU 70 988 1 142 102 47 77 52 37 25 37 25 15 1004 137 25 13 316
2009289N12230 2009 83 EP CP NEKI 2009-10-21 06:00:00 TS 15.9000 -165.700 75 985 hurdat_epa main 922 919 O_____________ hurdat_epa CP032009 15.9000 -165.700 HU 75 985 1 200 150 50 75 50 35 25 30 25 15 5 10 1008 200 25 90 12 85 55 45 80 11 314
2009289N12230 2009 83 EP CP NEKI 2009-10-21 09:00:00 TS 16.2425 -166.103 main 926 918 P_____________ CP032009 16.2425 -166.103 HU 82 980 1 210 155 60 82 55 37 27 32 27 17 7 12 1009 220 25 12 152 107 57 85 10 316
2009289N12230 2009 83 EP CP NEKI 2009-10-21 12:00:00 TS 16.6000 -166.400 90 975 hurdat_epa main 918 890 O_____________ hurdat_epa CP032009 16.6000 -166.400 HU 90 975 2 220 160 70 90 60 40 30 35 30 20 10 15 1010 240 25 105 12 220 160 70 90 10 334
2009289N12230 2009 83 EP CP NEKI 2009-10-21 15:00:00 TS 17.0999 -166.545 main 890 864 P_____________ CP032009 17.0999 -166.545 HU 95 967 2 220 160 70 90 62 42 32 37 32 22 12 20 1010 240 25 12 220 160 70 90 10 349
2009289N12230 2009 83 EP CP NEKI 2009-10-21 18:00:00 TS 17.6000 -166.600 100 960 hurdat_epa main 864 845 O_____________ hurdat_epa CP032009 17.6000 -166.600 HU 100 960 3 220 160 70 90 65 45 35 40 35 25 15 25 1010 240 25 120 12 220 160 70 90 9 353
2009289N12230 2009 83 EP CP NEKI 2009-10-21 21:00:00 TS 17.9725 -166.665 main 848 830 P_____________ CP032009 17.9725 -166.665 HU 105 955 3 220 162 77 95 72 52 42 50 45 35 27 32 1010 245 25 12 220 160 70 90 7 352
2009289N12230 2009 83 EP CP NEKI 2009-10-22 00:00:00 TS 18.3000 -166.700 110 950 hurdat_epa main 830 813 O_____________ hurdat_epa CP032009 18.3000 -166.700 HU 110 950 3 220 165 85 100 80 60 50 60 55 45 40 40 1010 250 25 130 12 220 160 70 90 7 357
2009289N12230 2009 83 EP CP NEKI 2009-10-22 03:00:00 TS 18.6500 -166.715 main 808 792 P_____________ CP032009 18.6500 -166.715 HU 107 953 3 220 165 85 100 80 60 50 60 55 45 40 40 1010 250 25 12 220 162 70 90 7 0
2009289N12230 2009 83 EP CP NEKI 2009-10-22 06:00:00 TS 19.0000 -166.700 105 956 hurdat_epa main 792 778 O_____________ hurdat_epa CP032009 19.0000 -166.700 HU 105 956 3 220 165 85 100 80 60 50 60 55 45 40 40 1010 250 25 130 12 220 165 70 90 7 3
2009289N12230 2009 83 EP CP NEKI 2009-10-22 09:00:00 TS 19.3500 -166.665 main 778 751 P_____________ CP032009 19.3500 -166.665 HU 102 960 3 200 165 85 100 75 60 50 60 52 45 40 40 1010 250 25 12 220 165 70 90 7 8
2009289N12230 2009 83 EP CP NEKI 2009-10-22 12:00:00 TS 19.7000 -166.600 100 965 hurdat_epa main 751 730 O_____________ hurdat_epa CP032009 19.7000 -166.600 HU 100 965 3 180 165 85 100 70 60 50 60 50 45 40 40 1010 250 25 120 12 220 165 70 90 7 12
2009289N12230 2009 83 EP CP NEKI 2009-10-22 15:00:00 TS 20.0500 -166.508 main 726 707 P_____________ CP032009 20.0500 -166.508 HU 95 967 2 180 165 85 100 70 60 50 60 50 45 40 40 1010 250 25 12 200 165 70 90 7 15
2009289N12230 2009 83 EP CP NEKI 2009-10-22 18:00:00 TS 20.4000 -166.400 90 970 hurdat_epa main 707 688 O_____________ hurdat_epa CP032009 20.4000 -166.400 HU 90 970 2 180 165 85 100 70 60 50 60 50 45 40 40 1010 250 25 110 12 180 165 70 90 7 15
2009289N12230 2009 83 EP CP NEKI 2009-10-22 21:00:00 TS 20.7425 -166.307 main 688 669 P_____________ CP032009 20.7425 -166.307 HU 87 972 2 180 165 85 100 70 60 50 60 50 45 37 40 1010 250 25 12 180 165 70 90 7 15
2009289N12230 2009 83 EP CP NEKI 2009-10-23 00:00:00 TS 21.1000 -166.200 85 975 hurdat_epa main 669 652 O_____________ hurdat_epa CP032009 21.1000 -166.200 HU 85 975 2 180 165 85 100 70 60 50 60 50 45 35 40 1010 250 25 105 12 180 165 70 90 8 17
2009289N12230 2009 83 EP CP NEKI 2009-10-23 03:00:00 TS 21.5075 -166.058 main 652 628 P_____________ CP032009 21.5075 -166.058 HU 82 977 1 170 157 90 105 67 60 50 60 47 42 35 40 1009 237 25 12 180 165 70 90 9 19
2009289N12230 2009 83 EP CP NEKI 2009-10-23 06:00:00 TS 21.9000 -165.900 80 980 hurdat_epa main 628 618 O_____________ hurdat_epa CP032009 21.9000 -165.900 HU 80 980 1 160 150 95 110 65 60 50 60 45 40 35 40 1008 225 25 100 12 180 165 70 90 8 22
2009289N12230 2009 83 EP CP NEKI 2009-10-23 09:00:00 TS 22.2300 -165.742 main 608 598 P_____________ CP032009 22.2300 -165.742 HU 75 985 1 150 130 85 102 55 50 40 47 37 30 30 1008 225 22 12 160 137 72 92 7 25
2009289N12230 2009 83 EP CP NEKI 2009-10-23 12:00:00 TS 22.5000 -165.600 70 990 hurdat_epa main 599 589 O_____________ hurdat_epa CP032009 22.5000 -165.600 HU 70 990 1 140 110 75 95 45 40 30 35 30 20 20 1008 225 20 75 12 140 110 75 95 5 25
2009289N12230 2009 83 EP CP NEKI 2009-10-23 15:00:00 TS 22.7150 -165.492 main 591 582 P_____________ CP032009 22.7150 -165.492 HU 65 992 1 160 95 62 97 37 37 25 30 15 10 10 1008 225 22 4 25
2009289N12230 2009 83 EP CP NEKI 2009-10-23 18:00:00 TS 22.9000 -165.400 60 995 hurdat_epa main 583 575 O_____________ hurdat_epa CP032009 22.9000 -165.400 TS 60 995 0 180 80 50 100 30 35 20 25 1008 225 25 65 4 23
2009289N12230 2009 83 EP CP NEKI 2009-10-23 21:00:00 TS 23.1075 -165.307 main 577 570 P_____________ CP032009 23.1075 -165.307 TS 57 996 0 165 70 40 90 30 35 20 25 1008 225 25 4 25
2009289N12230 2009 83 EP CP NEKI 2009-10-24 00:00:00 TS 23.3000 -165.200 55 998 hurdat_epa main 572 565 O_____________ hurdat_epa CP032009 23.3000 -165.200 TS 55 998 0 150 60 30 80 30 35 20 25 1008 225 25 65 12 180 110 75 180 4 32
2009289N12230 2009 83 EP CP NEKI 2009-10-24 03:00:00 TS 23.4500 -165.072 main 565 552 P_____________ CP032009 23.4500 -165.072 TS 55 998 0 150 75 35 80 32 35 22 27 1008 180 25 12 180 110 75 180 4 42
2009289N12230 2009 83 EP CP NEKI 2009-10-24 06:00:00 TS 23.6000 -164.900 55 999 hurdat_epa main 552 536 O_____________ hurdat_epa CP032009 23.6000 -164.900 TS 55 999 0 150 90 40 80 35 35 25 30 1008 135 25 65 12 180 110 75 180 5 49
2009289N12230 2009 83 EP CP NEKI 2009-10-24 09:00:00 TS 23.7851 -164.658 main 540 520 P_____________ CP032009 23.7851 -164.658 TS 52 1000 0 135 90 40 80 35 32 30 1008 142 25 12 195 115 87 190 6 49
2009289N12230 2009 83 EP CP NEKI 2009-10-24 12:00:00 TS 24.0000 -164.400 50 1001 hurdat_epa main 520 512 O_____________ hurdat_epa CP032009 24.0000 -164.400 TS 50 1001 0 120 90 40 80 35 30 30 1008 150 25 60 12 210 120 100 200 7 43
2009289N12230 2009 83 EP CP NEKI 2009-10-24 15:00:00 TS 24.2650 -164.170 main 517 505 P_____________ CP032009 24.2650 -164.170 TS 50 1001 0 110 95 50 70 32 45 30 1008 165 42 12 190 120 97 180 6 36
2009289N12230 2009 83 EP CP NEKI 2009-10-24 18:00:00 TS 24.5000 -164.000 50 1001 hurdat_epa main 511 509 O_____________ hurdat_epa CP032009 24.5000 -164.000 TS 50 1001 0 100 100 60 60 30 60 30 30 1008 180 60 60 12 170 120 95 160 4 32
2009289N12230 2009 83 EP CP NEKI 2009-10-24 21:00:00 TS 24.6375 -163.920 main 509 509 P_____________ CP032009 24.6375 -163.920 TS 50 1001 0 100 100 60 60 30 60 30 30 1008 180 60 2 25
2009289N12230 2009 83 EP CP NEKI 2009-10-25 00:00:00 TS 24.7000 -163.900 50 1001 hurdat_epa main 515 515 O_____________ hurdat_epa CP032009 24.7000 -163.900 TS 50 1001 0 100 100 60 60 30 60 30 30 1008 180 60 60 1 21
2009289N12230 2009 83 EP CP NEKI 2009-10-25 03:00:00 TS 24.7200 -163.875 main 515 515 P_____________ CP032009 24.7225 -163.885 TS 50 1001 0 125 110 65 72 60 50 37 1008 155 60 0 0
2009289N12230 2009 83 EP CP NEKI 2009-10-25 06:00:00 TS 24.7000 -163.900 50 1002 hurdat_epa main 515 515 O_____________ hurdat_epa CP032009 24.7000 -163.900 TS 50 1002 0 150 120 70 85 90 40 45 1008 130 60 60 12 170 120 95 160 1 244
2009289N12230 2009 83 EP CP NEKI 2009-10-25 09:00:00 TS 24.6617 -164.007 main 524 524 P_____________ CP032009 24.6425 -163.935 TS 47 1002 0 145 115 67 82 1008 127 55 12 175 110 72 155 2 253
2009289N12230 2009 83 EP CP NEKI 2009-10-25 12:00:00 TS 24.6333 -164.133 45 1003 hurdat_epa main 526 526 O_____________ hurdat_epa CP032009 24.6000 -164.000 TS 45 1003 0 140 110 65 80 1008 125 50 55 12 180 100 50 150 2 266
2009289N12230 2009 83 EP CP NEKI 2009-10-25 15:00:00 TS 24.6516 -164.183 main 540 540 P_____________ CP032009 24.6349 -164.070 TS 45 1003 0 160 110 65 80 1008 125 50 1 299
2009289N12230 2009 83 EP CP NEKI 2009-10-25 18:00:00 TS 24.7000 -164.267 45 1003 hurdat_epa main 549 549 O_____________ hurdat_epa CP032009 24.7000 -164.200 TS 45 1003 0 180 110 65 80 1008 125 50 55 3 287
2009289N12230 2009 83 EP CP NEKI 2009-10-25 21:00:00 TS 24.7343 -164.490 main 566 566 P_____________ CP032009 24.7201 -164.450 TS 42 1004 0 172 110 65 80 1008 125 50 4 287
2009289N12230 2009 83 EP CP NEKI 2009-10-26 00:00:00 TS 24.8333 -164.733 40 1006 hurdat_epa main 589 589 O_____________ hurdat_epa CP032009 24.8000 -164.700 TS 40 1006 0 165 110 65 80 1008 125 50 50 12 180 130 40 150 5 310
2009289N12230 2009 83 EP CP NEKI 2009-10-26 03:00:00 TS 25.0483 -164.902 main 618 618 P_____________ CP032009 25.0124 -164.830 TS 37 1007 0 165 110 57 70 1010 125 50 12 180 130 40 150 6 334
2009289N12230 2009 83 EP CP NEKI 2009-10-26 06:00:00 TS 25.3333 -165.000 35 1008 hurdat_epa main 645 645 O_____________ hurdat_epa CP032009 25.3000 -164.900 TS 35 1008 0 165 110 50 60 1012 125 50 45 12 180 130 40 150 5 353
2009289N12230 2009 83 EP CP NEKI 2009-10-26 09:00:00 TS 25.5807 -164.973 main 664 664 P_____________ CP032009 25.5474 -164.921 TS 35 1008 0 152 110 45 55 1012 125 50 12 180 130 40 150 6 359
2009289N12230 2009 83 EP CP NEKI 2009-10-26 12:00:00 TS 25.9333 -165.000 35 1009 hurdat_epa main 684 684 O_____________ hurdat_epa CP032009 25.9000 -165.000 TS 35 1009 0 140 110 40 50 1012 125 50 45 12 180 130 40 150 9 339
2009289N12230 2009 83 EP CP NEKI 2009-10-26 15:00:00 TS 26.4537 -165.340 main 750 750 P_____________ CP032009 26.4178 -165.329 TS 32 1009 -1 1012 125 50 12 180 130 40 150 13 335
2009289N12230 2009 83 EP CP NEKI 2009-10-26 18:00:00 TS 27.1333 -165.633 30 1010 hurdat_epa main 816 816 O_____________ hurdat_epa CP032009 27.1000 -165.600 TD 30 1010 -1 1012 125 50 40 12 180 130 40 150 15 352
2009289N12230 2009 83 EP CP NEKI 2009-10-26 21:00:00 TS 27.9350 -165.582 main 878 878 P_____________ CP032009 27.9150 -165.555 TD 30 1010 -1 1012 107 50 17 10
2009289N12230 2009 83 EP CP NEKI 2009-10-27 00:00:00 TS 28.8000 -165.300 30 1010 hurdat_epa main 935 O_____________ hurdat_epa CP032009 28.8000 -165.300 TD 30 1010 -1 1012 90 50 40 18 16

About IBTrACS Database

This database is a web-friendly format of International Best Track Archive for Climate Stewardship (IBTrACS), a global best track data archive curated by NOAA dating back to 1842.

Updated: 2021-11-26